createdAt,value
2022-09-23T00:02:49.111Z,14.38
2022-09-23T00:07:43.743Z,14.64
2022-09-23T00:12:36.961Z,14.68
2022-09-23T00:17:30.155Z,14.70
2022-09-23T00:22:23.661Z,14.70
2022-09-23T00:27:21.112Z,14.44
2022-09-23T00:32:14.374Z,14.52
2022-09-23T00:37:07.636Z,14.40
2022-09-23T00:42:00.921Z,14.21
2022-09-23T00:46:55.573Z,13.97
2022-09-23T00:51:54.744Z,13.36
2022-09-23T00:56:47.981Z,13.25
2022-09-23T01:01:41.397Z,12.45
2022-09-23T01:06:35.941Z,13.24
2022-09-23T01:11:40.201Z,13.14
2022-09-23T01:16:42.057Z,12.95
2022-09-23T01:21:51.305Z,12.69
2022-09-23T01:26:56.728Z,12.62
2022-09-23T01:31:56.006Z,12.30
2022-09-23T01:36:53.402Z,12.16
2022-09-23T01:41:58.303Z,12.19
2022-09-23T01:46:56.246Z,11.99
2022-09-23T01:51:53.515Z,12.16
2022-09-23T01:56:52.220Z,12.06
2022-09-23T02:01:50.933Z,11.87
2022-09-23T02:06:51.238Z,12.09
2022-09-23T02:11:48.264Z,12.11
2022-09-23T02:16:47.609Z,12.20
2022-09-23T02:21:45.373Z,12.13
2022-09-23T02:26:48.186Z,11.92
2022-09-23T02:31:46.609Z,11.93
2022-09-23T02:36:52.994Z,11.99
2022-09-23T02:41:53.762Z,12.24
2022-09-23T02:46:47.632Z,12.12
2022-09-23T02:51:41.836Z,12.27
2022-09-23T02:56:35.821Z,12.07
2022-09-23T03:01:41.892Z,12.06
2022-09-23T03:06:45.101Z,12.15
2022-09-23T03:11:41.584Z,11.94
2022-09-23T03:16:43.752Z,11.80
2022-09-23T03:21:43.217Z,11.40
2022-09-23T03:26:39.801Z,11.31
2022-09-23T03:31:33.914Z,11.41
2022-09-23T03:36:52.196Z,11.60
2022-09-23T03:41:50.984Z,11.66
2022-09-23T03:46:49.834Z,11.66
2022-09-23T03:51:44.934Z,11.45
2022-09-23T03:56:38.489Z,11.32
2022-09-23T04:01:31.604Z,11.41
2022-09-23T04:06:24.938Z,11.06
2022-09-23T04:11:19.483Z,10.88
2022-09-23T04:16:12.989Z,10.84
2022-09-23T04:21:06.518Z,10.67
2022-09-23T04:26:00.799Z,11.18
2022-09-23T04:30:57.954Z,11.35
2022-09-23T04:35:53.671Z,11.50
2022-09-23T04:40:47.100Z,11.43
2022-09-23T04:45:40.457Z,11.66
2022-09-23T04:50:38.864Z,11.75
2022-09-23T04:55:32.130Z,11.81
2022-09-23T05:00:27.263Z,11.21
2022-09-23T05:05:21.268Z,11.86
2022-09-23T05:10:15.905Z,12.12
2022-09-23T05:15:09.856Z,11.88
2022-09-23T05:20:03.425Z,11.97
2022-09-23T05:24:56.665Z,11.54
2022-09-23T05:29:53.213Z,12.07
2022-09-23T05:34:46.441Z,11.99
2022-09-23T05:39:39.709Z,12.08
2022-09-23T05:44:40.132Z,12.35
2022-09-23T05:49:58.102Z,12.02
2022-09-23T05:54:50.046Z,11.69
2022-09-23T05:59:47.427Z,12.34
2022-09-23T06:04:43.175Z,11.91
2022-09-23T06:09:56.000Z,11.66
2022-09-23T06:14:50.760Z,12.23
2022-09-23T06:19:45.435Z,13.06
2022-09-23T06:24:38.577Z,12.90
2022-09-23T06:29:33.826Z,13.26
2022-09-23T06:34:27.016Z,13.41
2022-09-23T06:39:21.617Z,13.43
2022-09-23T06:44:14.933Z,13.82
2022-09-23T06:49:09.097Z,13.59
2022-09-23T06:54:02.710Z,14.13
2022-09-23T06:58:57.346Z,14.23
2022-09-23T07:03:54.315Z,14.44
2022-09-23T07:08:48.655Z,14.42
2022-09-23T07:13:42.759Z,14.09
2022-09-23T07:18:41.072Z,13.78
2022-09-23T07:23:35.118Z,13.49
2022-09-23T07:28:29.288Z,13.17
2022-09-23T07:33:31.637Z,13.06
2022-09-23T07:38:34.207Z,12.82
2022-09-23T07:43:32.044Z,12.97
2022-09-23T07:48:25.184Z,12.92
2022-09-23T07:53:18.303Z,12.71
2022-09-23T07:58:19.244Z,12.13
2022-09-23T08:03:12.374Z,12.75
2022-09-23T08:08:07.308Z,12.72
2022-09-23T08:13:06.585Z,12.62
2022-09-23T08:18:04.325Z,12.87
2022-09-23T08:22:57.453Z,12.91
2022-09-23T08:27:50.755Z,11.88
2022-09-23T08:32:43.923Z,13.06
2022-09-23T08:37:38.403Z,13.19
2022-09-23T08:42:34.985Z,12.99
2022-09-23T08:47:44.489Z,13.21
2022-09-23T08:52:50.208Z,13.39
2022-09-23T08:58:23.334Z,13.76
2022-09-23T09:03:21.925Z,13.85
2022-09-23T09:08:24.615Z,13.46
2022-09-23T09:13:31.030Z,13.74
2022-09-23T09:18:26.529Z,14.14
2022-09-23T09:23:25.076Z,14.19
2022-09-23T09:28:24.757Z,14.30
2022-09-23T09:33:24.503Z,14.19
2022-09-23T09:38:17.877Z,14.60
2022-09-23T09:43:22.790Z,14.38
2022-09-23T09:48:22.761Z,14.44
2022-09-23T09:53:26.453Z,14.48
2022-09-23T09:58:21.097Z,14.38
2022-09-23T10:03:35.507Z,14.72
2022-09-23T10:08:32.471Z,14.93
2022-09-23T10:13:29.508Z,15.16
2022-09-23T10:18:27.721Z,15.36
2022-09-23T10:23:28.713Z,15.64
2022-09-23T10:28:43.078Z,15.01
2022-09-23T10:33:44.085Z,15.85
2022-09-23T10:38:39.545Z,15.90
2022-09-23T10:44:11.870Z,15.92
2022-09-23T10:49:35.731Z,16.31
2022-09-23T10:54:42.521Z,16.52
2022-09-23T11:00:02.802Z,16.65
2022-09-23T11:05:16.815Z,16.60
2022-09-23T11:10:45.009Z,16.49
2022-09-23T11:15:55.421Z,17.87
2022-09-23T11:20:59.595Z,19.10
2022-09-23T11:26:01.850Z,19.21
2022-09-23T11:31:06.574Z,21.65
2022-09-23T11:36:08.537Z,22.70
2022-09-23T11:41:05.281Z,23.56
2022-09-23T11:46:05.022Z,24.02
2022-09-23T11:51:03.332Z,23.93
2022-09-23T11:56:04.045Z,24.40
2022-09-23T12:01:05.549Z,24.28
2022-09-23T12:06:02.752Z,24.89
2022-09-23T12:11:06.192Z,24.61
2022-09-23T12:16:20.001Z,24.85
2022-09-23T12:21:50.323Z,24.86
2022-09-23T12:26:47.079Z,25.03
2022-09-23T12:31:46.777Z,25.15
2022-09-23T12:36:41.330Z,25.54
2022-09-23T12:41:38.518Z,25.79
2022-09-23T12:46:31.757Z,25.50
2022-09-23T12:51:27.011Z,25.56
2022-09-23T12:56:21.770Z,26.34
2022-09-23T13:01:20.559Z,27.40
2022-09-23T13:06:33.397Z,27.85
2022-09-23T13:11:31.891Z,27.76
2022-09-23T13:16:30.783Z,27.53
2022-09-23T13:22:06.972Z,27.14
2022-09-23T13:27:11.578Z,26.68
2022-09-23T13:32:06.407Z,25.63
2022-09-23T13:37:00.823Z,24.90
2022-09-23T13:41:56.892Z,25.46
2022-09-23T13:46:54.605Z,26.83
2022-09-23T13:51:48.537Z,28.11
2022-09-23T13:56:50.318Z,28.90
2022-09-23T14:01:47.265Z,29.13
2022-09-23T14:06:42.765Z,28.76
2022-09-23T14:11:37.333Z,28.07
2022-09-23T14:16:32.495Z,27.84
2022-09-23T14:21:34.031Z,27.00
2022-09-23T14:26:29.283Z,25.32
2022-09-23T14:31:22.715Z,22.73
2022-09-23T14:36:36.662Z,22.29
2022-09-23T14:41:36.547Z,21.22
2022-09-23T14:46:33.163Z,20.91
2022-09-23T14:51:45.985Z,20.41
2022-09-23T14:56:45.363Z,20.15
2022-09-23T15:01:40.105Z,19.25
2022-09-23T15:06:33.506Z,19.10
2022-09-23T15:11:26.824Z,18.49
2022-09-23T15:16:27.820Z,18.17
2022-09-23T15:21:23.318Z,18.10
2022-09-23T15:26:18.169Z,17.59
2022-09-23T15:31:12.945Z,17.81
2022-09-23T15:36:09.285Z,17.43
2022-09-23T15:41:03.192Z,17.54
2022-09-23T15:46:00.194Z,17.01
2022-09-23T15:50:57.006Z,16.81
2022-09-23T15:55:52.398Z,17.30
2022-09-23T16:00:46.062Z,17.20
2022-09-23T16:05:41.274Z,17.11
2022-09-23T16:10:34.967Z,17.07
2022-09-23T16:15:31.893Z,16.73
2022-09-23T16:20:28.609Z,16.73
2022-09-23T16:25:28.464Z,16.94
2022-09-23T16:30:21.786Z,16.80
2022-09-23T16:35:16.969Z,16.65
2022-09-23T16:40:11.199Z,16.44
2022-09-23T16:45:05.729Z,16.51
2022-09-23T16:50:01.449Z,15.80
2022-09-23T16:54:56.151Z,15.92
2022-09-23T17:00:08.976Z,16.11
2022-09-23T17:05:01.961Z,16.04
2022-09-23T17:09:58.216Z,15.71
2022-09-23T17:14:52.640Z,15.51
2022-09-23T17:19:46.142Z,15.62
2022-09-23T17:24:39.309Z,15.50
2022-09-23T17:29:34.005Z,15.41
2022-09-23T17:34:28.973Z,15.36
2022-09-23T17:39:22.130Z,15.29
2022-09-23T17:44:16.208Z,15.15
2022-09-23T17:49:12.127Z,15.13
2022-09-23T17:54:07.851Z,15.11
2022-09-23T17:59:02.480Z,15.22
2022-09-23T18:03:56.258Z,14.89
2022-09-23T18:08:52.907Z,14.30
2022-09-23T18:13:50.847Z,14.76
2022-09-23T18:18:44.738Z,14.30
2022-09-23T18:23:38.272Z,14.64
2022-09-23T18:28:34.943Z,14.49
2022-09-23T18:33:28.456Z,14.68
2022-09-23T18:38:22.667Z,14.49
2022-09-23T18:43:19.627Z,14.40
2022-09-23T18:48:32.005Z,14.39
2022-09-23T18:53:25.320Z,14.50
2022-09-23T18:58:18.547Z,14.37
2022-09-23T19:03:11.762Z,14.38
2022-09-23T19:08:07.536Z,14.13
2022-09-23T19:13:00.758Z,13.96
2022-09-23T19:17:54.811Z,13.93
2022-09-23T19:22:48.536Z,13.72
2022-09-23T19:27:42.977Z,13.72
2022-09-23T19:32:36.132Z,13.45
2022-09-23T19:37:29.543Z,13.62
2022-09-23T19:42:25.087Z,13.20
2022-09-23T19:47:19.873Z,13.33
2022-09-23T19:52:16.845Z,13.55
2022-09-23T19:57:10.235Z,13.30
2022-09-23T20:02:03.546Z,12.90
2022-09-23T20:06:59.966Z,13.21
2022-09-23T20:11:53.499Z,13.29
2022-09-23T20:16:46.791Z,13.19
2022-09-23T20:22:07.036Z,13.27
2022-09-23T20:27:10.701Z,13.94
2022-09-23T20:32:04.200Z,13.98
2022-09-23T20:36:57.699Z,13.44
2022-09-23T20:41:52.456Z,13.97
2022-09-23T20:46:49.019Z,14.08
2022-09-23T20:51:42.762Z,14.08
2022-09-23T20:56:36.005Z,13.82
2022-09-23T21:01:29.641Z,13.81
2022-09-23T21:06:26.304Z,13.53
2022-09-23T21:11:20.293Z,13.66
2022-09-23T21:16:15.400Z,13.63
2022-09-23T21:21:09.185Z,13.58
2022-09-23T21:26:04.705Z,13.64
2022-09-23T21:30:59.753Z,13.84
2022-09-23T21:35:55.762Z,13.61
2022-09-23T21:40:57.758Z,13.78
2022-09-23T21:45:57.066Z,13.57
2022-09-23T21:50:55.784Z,13.81
2022-09-23T21:55:48.974Z,13.91
2022-09-23T22:00:42.193Z,13.95
2022-09-23T22:05:37.446Z,13.62
2022-09-23T22:10:30.618Z,13.76
2022-09-23T22:15:23.763Z,13.58
2022-09-23T22:20:17.103Z,13.78
2022-09-23T22:25:12.695Z,13.86
2022-09-23T22:30:24.263Z,13.86
2022-09-23T22:35:18.802Z,13.79
2022-09-23T22:40:18.456Z,13.58
2022-09-23T22:45:12.997Z,13.89
2022-09-23T22:50:07.187Z,13.71
2022-09-23T22:55:00.369Z,13.73
2022-09-23T22:59:54.991Z,13.61
2022-09-23T23:04:49.060Z,13.32
2022-09-23T23:09:43.130Z,13.39
2022-09-23T23:14:37.815Z,13.48
2022-09-23T23:19:32.356Z,13.40
2022-09-23T23:24:25.877Z,13.25
2022-09-23T23:29:20.818Z,12.96
2022-09-23T23:34:16.317Z,12.72
2022-09-23T23:39:11.602Z,12.72
2022-09-23T23:44:05.627Z,12.31
2022-09-23T23:48:59.999Z,12.60
2022-09-23T23:53:54.392Z,12.47
2022-09-23T23:58:49.102Z,12.48
